Time;durP1;ratioP1;P1;durP2;ratioP2;P2;SDS_P1;SDS_P2;PMS_P1;PMS_P2;Temp;Humidity;BMP_temperature;BMP_pressure;BME280_temperature;BME280_humidity;BME280_pressure;Samples;Min_cycle;Max_cycle;Signal;HPM_P1;HPM_P2
2023/07/25 00:02:44;;;;;;;3.12;1.98;;;;;;;18.70;100.00;99155.17;5059243;56;1138896;-65
2023/07/25 00:07:49;;;;;;;4.53;2.27;;;;;;;18.58;100.00;99148.23;4979460;57;1139191;-65
2023/07/25 00:12:58;;;;;;;9.03;1.98;;;;;;;18.53;100.00;99137.30;5066701;56;1138919;-65
2023/07/25 00:18:04;;;;;;;3.52;1.70;;;;;;;18.46;100.00;99148.01;5049149;57;1138926;-65
2023/07/25 00:23:10;;;;;;;2.85;1.65;;;;;;;18.47;100.00;99154.19;4959641;57;1138971;-66
2023/07/25 00:28:16;;;;;;;5.30;2.00;;;;;;;18.43;100.00;99152.42;5025333;56;1138930;-65
2023/07/25 00:33:21;;;;;;;5.67;1.97;;;;;;;18.43;100.00;99142.23;4995975;57;1139211;-66
2023/07/25 00:38:27;;;;;;;7.03;1.93;;;;;;;18.43;100.00;99140.37;4962925;57;1138817;-65
2023/07/25 00:43:32;;;;;;;2.15;1.85;;;;;;;18.43;100.00;99141.72;4939467;57;1138958;-66
2023/07/25 00:48:39;;;;;;;4.85;2.27;;;;;;;18.41;100.00;99155.81;4995833;57;1138951;-65
2023/07/25 00:53:44;;;;;;;3.60;2.15;;;;;;;18.40;100.00;99159.52;4983402;57;1138598;-65
2023/07/25 00:58:50;;;;;;;2.90;2.00;;;;;;;18.38;100.00;99165.58;5024415;56;1138754;-65
2023/07/25 01:03:56;;;;;;;2.30;2.00;;;;;;;18.38;100.00;99176.29;5115500;56;1138801;-65
2023/07/25 01:09:02;;;;;;;5.53;1.60;;;;;;;18.34;100.00;99161.65;5000685;56;1138718;-65
2023/07/25 01:14:07;;;;;;;4.17;1.62;;;;;;;18.34;100.00;99156.30;5046883;56;1148372;-65
2023/07/25 01:19:13;;;;;;;5.78;1.87;;;;;;;18.35;100.00;99163.81;5052891;56;1188521;-64
2023/07/25 01:24:19;;;;;;;4.47;2.10;;;;;;;18.35;100.00;99169.99;5124674;56;1176726;-65
2023/07/25 01:29:24;;;;;;;5.47;2.35;;;;;;;18.33;100.00;99177.42;5077596;56;1138750;-64
2023/07/25 01:34:30;;;;;;;3.83;2.40;;;;;;;18.30;100.00;99189.05;4962425;57;1138844;-65
2023/07/25 01:39:36;;;;;;;2.33;2.00;;;;;;;18.21;100.00;99190.55;5043581;57;1179985;-64
2023/07/25 01:44:42;;;;;;;3.58;1.55;;;;;;;18.14;100.00;99192.89;5064207;57;1138630;-66
2023/07/25 01:49:47;;;;;;;3.02;1.75;;;;;;;18.08;100.00;99190.49;5043492;56;1176034;-64
2023/07/25 01:54:54;;;;;;;6.03;1.57;;;;;;;17.96;100.00;99193.94;5019714;57;1225282;-64
2023/07/25 02:00:00;;;;;;;2.50;1.80;;;;;;;17.86;100.00;99205.84;5032965;55;1255090;-64
2023/07/25 02:05:06;;;;;;;4.90;2.67;;;;;;;17.84;100.00;99207.89;4961010;58;1250213;-65
2023/07/25 02:10:14;;;;;;;5.88;2.30;;;;;;;17.72;100.00;99204.62;4979356;57;1244669;-66
2023/07/25 02:15:19;;;;;;;5.65;2.45;;;;;;;17.66;100.00;99210.75;5094796;56;1139570;-65
2023/07/25 02:20:27;;;;;;;4.60;2.65;;;;;;;17.62;100.00;99212.12;5105204;56;1234058;-65
2023/07/25 02:25:32;;;;;;;3.05;2.30;;;;;;;17.57;100.00;99223.39;4990379;55;1232902;-65
2023/07/25 02:30:38;;;;;;;3.27;2.93;;;;;;;17.53;100.00;99226.17;5127455;56;1237414;-64
2023/07/25 02:35:44;;;;;;;3.93;3.43;;;;;;;17.51;100.00;99225.53;5063892;57;1139864;-65
2023/07/25 02:40:49;;;;;;;3.73;3.37;;;;;;;17.46;100.00;99227.44;5043840;57;1189204;-64
2023/07/25 02:45:55;;;;;;;3.83;2.77;;;;;;;17.44;100.00;99231.33;5042899;57;1248472;-65
2023/07/25 02:51:01;;;;;;;3.93;3.07;;;;;;;17.42;100.00;99240.88;5062537;57;1245460;-65
2023/07/25 02:56:06;;;;;;;4.17;3.10;;;;;;;17.43;100.00;99245.20;5042826;56;1244855;-65
2023/07/25 03:01:12;;;;;;;4.37;3.00;;;;;;;17.41;100.00;99253.95;5043803;57;1181790;-65
2023/07/25 03:06:17;;;;;;;3.58;3.26;;;;;;;17.32;100.00;99255.09;4960898;58;1139669;-65
2023/07/25 03:11:23;;;;;;;7.08;2.87;;;;;;;17.25;100.00;99260.91;5010802;57;1139086;-65
2023/07/25 03:16:29;;;;;;;4.70;3.05;;;;;;;17.15;100.00;99271.07;5018828;57;1249072;-64
2023/07/25 03:21:35;;;;;;;3.90;3.60;;;;;;;17.09;100.00;99267.34;4937949;57;1246498;-64
2023/07/25 03:26:40;;;;;;;6.00;2.73;;;;;;;17.02;100.00;99266.44;5037695;57;1247866;-65
2023/07/25 03:31:46;;;;;;;7.13;4.00;;;;;;;16.99;100.00;99283.34;4939774;57;1139198;-64
2023/07/25 03:36:51;;;;;;;6.03;3.60;;;;;;;16.98;100.00;99283.03;5019074;57;1253081;-65
2023/07/25 03:41:57;;;;;;;7.23;4.20;;;;;;;16.99;100.00;99274.00;4958940;57;1138989;-65
2023/07/25 03:47:03;;;;;;;5.97;4.30;;;;;;;16.88;100.00;99280.17;4972770;57;1138628;-64
2023/07/25 03:52:09;;;;;;;11.00;3.70;;;;;;;16.84;100.00;99269.54;4859248;59;1254520;-65
2023/07/25 03:57:14;;;;;;;8.00;4.05;;;;;;;16.89;100.00;99272.98;4860059;59;1179466;-67
2023/07/25 04:02:20;;;;;;;7.37;4.03;;;;;;;16.82;100.00;99272.91;4879773;59;1138832;-65
2023/07/25 04:07:26;;;;;;;9.65;4.70;;;;;;;16.73;100.00;99264.70;4915362;58;1138765;-65
2023/07/25 04:12:31;;;;;;;4.42;3.65;;;;;;;16.70;100.00;99274.42;5057993;56;1140171;-65
2023/07/25 04:17:37;;;;;;;8.50;4.53;;;;;;;16.76;100.00;99275.52;5109271;56;1138975;-65
2023/07/25 04:22:43;;;;;;;4.97;3.30;;;;;;;16.84;100.00;99285.56;5149705;55;1138700;-65
2023/07/25 04:27:49;;;;;;;5.37;3.80;;;;;;;16.91;100.00;99290.98;5194249;55;1138709;-65
2023/07/25 04:32:54;;;;;;;6.24;3.76;;;;;;;16.89;100.00;99293.02;5098541;55;1139011;-65
2023/07/25 04:38:00;;;;;;;7.30;4.10;;;;;;;16.98;100.00;99293.71;5010893;56;1138965;-65
2023/07/25 04:43:06;;;;;;;6.60;3.70;;;;;;;17.01;100.00;99292.00;4968379;57;1138917;-65
2023/07/25 04:48:11;;;;;;;5.93;3.73;;;;;;;16.97;100.00;99303.56;5039087;56;1138481;-64
2023/07/25 04:53:17;;;;;;;8.17;3.70;;;;;;;17.02;100.00;99317.70;5047173;56;1138802;-65
2023/07/25 04:58:22;;;;;;;4.12;3.72;;;;;;;17.07;100.00;99317.97;5010889;56;1138868;-64
2023/07/25 05:03:28;;;;;;;5.70;4.00;;;;;;;17.07;100.00;99313.45;5120874;55;1139068;-65
2023/07/25 05:08:34;;;;;;;3.90;3.20;;;;;;;17.05;100.00;99320.83;5051985;55;1138973;-65
2023/07/25 05:13:39;;;;;;;6.67;3.63;;;;;;;17.09;100.00;99336.80;5073452;55;1139081;-65
2023/07/25 05:18:45;;;;;;;6.23;3.53;;;;;;;17.09;100.00;99340.80;5173342;55;1138937;-65
2023/07/25 05:23:50;;;;;;;4.77;2.60;;;;;;;17.02;100.00;99339.06;5096114;55;1138776;-65
2023/07/25 05:28:56;;;;;;;4.02;2.88;;;;;;;17.04;100.00;99341.05;5055296;55;1138813;-65
2023/07/25 05:34:01;;;;;;;6.13;3.37;;;;;;;17.04;100.00;99343.72;5117614;55;1138841;-65
2023/07/25 05:39:07;;;;;;;4.70;3.42;;;;;;;17.07;100.00;99342.84;5151587;55;1139020;-64
2023/07/25 05:44:12;;;;;;;3.13;2.83;;;;;;;17.11;100.00;99344.09;5055430;56;1138917;-65
2023/07/25 05:49:18;;;;;;;4.00;2.87;;;;;;;17.10;100.00;99342.97;5025627;56;1144098;-65
2023/07/25 05:54:23;;;;;;;6.03;3.25;;;;;;;17.11;100.00;99344.63;5069529;56;1138659;-65
2023/07/25 05:59:29;;;;;;;6.60;4.25;;;;;;;17.15;100.00;99340.03;5024526;56;1138640;-65
2023/07/25 06:04:35;;;;;;;6.78;3.27;;;;;;;17.22;100.00;99343.61;5047435;57;1138776;-64
2023/07/25 06:09:40;;;;;;;6.27;3.40;;;;;;;17.25;100.00;99350.42;5028903;56;1138937;-65
2023/07/25 06:14:46;;;;;;;8.00;3.10;;;;;;;17.29;100.00;99354.86;4981608;57;1138665;-64
2023/07/25 06:19:52;;;;;;;5.37;2.77;;;;;;;17.38;100.00;99370.59;5119967;55;1139051;-65
2023/07/25 06:24:58;;;;;;;5.63;3.50;;;;;;;17.36;100.00;99386.50;5001539;57;1138832;-66
2023/07/25 06:30:04;;;;;;;3.67;3.37;;;;;;;17.32;100.00;99382.03;5003138;56;1139028;-65
2023/07/25 06:35:10;;;;;;;3.50;2.67;;;;;;;17.42;100.00;99384.38;5045478;56;1139132;-66
2023/07/25 06:40:15;;;;;;;4.17;3.30;;;;;;;17.53;100.00;99370.53;4962302;56;1139176;-65
2023/07/25 06:45:21;;;;;;;6.57;2.53;;;;;;;17.47;100.00;99372.62;4960773;57;1138866;-65
2023/07/25 06:50:27;;;;;;;5.47;2.92;;;;;;;17.50;100.00;99376.25;5025740;57;1138877;-66
2023/07/25 06:55:34;;;;;;;5.07;2.77;;;;;;;17.50;100.00;99394.97;5061700;56;1138774;-64
2023/07/25 07:00:40;;;;;;;5.83;3.20;;;;;;;17.48;100.00;99400.50;5046365;56;1138864;-65
2023/07/25 07:05:54;;;;;;;5.70;3.80;;;;;;;17.53;100.00;99398.09;5011050;56;1138847;-65
2023/07/25 07:10:59;;;;;;;4.67;3.23;;;;;;;17.55;100.00;99401.92;5019643;56;1138834;-64
2023/07/25 07:16:06;;;;;;;3.30;3.00;;;;;;;17.66;100.00;99409.45;5069908;56;1139062;-64
2023/07/25 07:21:11;;;;;;;3.70;3.20;;;;;;;17.64;100.00;99414.67;5047638;56;1139196;-64
2023/07/25 07:26:17;;;;;;;3.30;3.10;;;;;;;17.61;100.00;99411.00;4973581;56;1138822;-64
2023/07/25 07:31:24;;;;;;;3.63;3.33;;;;;;;17.47;100.00;99411.38;5067830;56;1139105;-64
2023/07/25 07:36:29;;;;;;;4.70;2.72;;;;;;;17.41;100.00;99411.66;4933877;56;1139031;-64
2023/07/25 07:41:36;;;;;;;3.67;3.37;;;;;;;17.46;100.00;99411.06;4987657;57;1139083;-64
2023/07/25 07:46:41;;;;;;;7.30;3.30;;;;;;;17.47;100.00;99404.70;4980997;57;1138807;-65
2023/07/25 07:51:47;;;;;;;7.47;3.53;;;;;;;17.44;100.00;99411.75;4937937;58;1139093;-65
2023/07/25 07:56:52;;;;;;;6.06;3.60;;;;;;;17.42;100.00;99416.45;4977033;56;1139056;-64
2023/07/25 08:01:58;;;;;;;7.20;3.27;;;;;;;17.38;100.00;99417.88;5072425;57;1139021;-65
2023/07/25 08:07:04;;;;;;;6.83;3.67;;;;;;;17.40;100.00;99419.86;5003922;56;1138950;-65
2023/07/25 08:12:10;;;;;;;3.97;3.60;;;;;;;17.48;100.00;99409.03;5069508;56;1138792;-65
2023/07/25 08:17:16;;;;;;;7.33;4.00;;;;;;;17.51;100.00;99405.98;4966590;56;1138961;-66
2023/07/25 08:22:22;;;;;;;5.90;3.27;;;;;;;17.62;100.00;99393.43;5066367;56;1139104;-67
2023/07/25 08:27:27;;;;;;;8.55;3.72;;;;;;;17.68;100.00;99387.88;5063477;56;1138659;-64
2023/07/25 08:32:33;;;;;;;9.93;4.13;;;;;;;17.62;100.00;99380.57;5149693;55;1138937;-64
2023/07/25 08:37:38;;;;;;;7.30;3.55;;;;;;;17.71;100.00;99378.96;5135064;55;1138925;-65
2023/07/25 08:42:48;;;;;;;6.62;4.12;;;;;;;17.91;100.00;99378.59;5123685;55;1138819;-65
2023/07/25 08:47:56;;;;;;;4.62;3.30;;;;;;;18.28;100.00;99363.22;5139507;55;1138895;-65
2023/07/25 08:53:05;;;;;;;8.30;3.45;;;;;;;18.41;100.00;99376.67;5130117;55;1138687;-64
2023/07/25 08:58:12;;;;;;;3.27;3.03;;;;;;;18.36;100.00;99385.80;5173305;55;1138964;-64
2023/07/25 09:03:18;;;;;;;3.25;2.70;;;;;;;18.40;100.00;99399.11;5158687;55;1138941;-65
2023/07/25 09:08:23;;;;;;;14.13;3.77;;;;;;;18.42;100.00;99417.16;5112792;55;1139093;-65
2023/07/25 09:13:30;;;;;;;4.00;2.90;;;;;;;18.49;100.00;99435.41;5140998;55;1140946;-64
2023/07/25 09:18:36;;;;;;;2.90;2.70;;;;;;;18.55;100.00;99435.14;5125904;55;1138758;-66
2023/07/25 09:23:47;;;;;;;3.85;2.98;;;;;;;18.72;100.00;99443.21;5156927;55;1139047;-67
2023/07/25 09:28:56;;;;;;;9.33;2.30;;;;;;;18.88;100.00;99436.70;5131768;55;1138813;-63
2023/07/25 09:34:02;;;;;;;6.22;2.70;;;;;;;19.16;100.00;99435.27;5139527;55;1139044;-63
2023/07/25 09:39:07;;;;;;;2.50;2.35;;;;;;;19.59;100.00;99429.95;5127260;55;1138995;-66
2023/07/25 09:44:13;;;;;;;3.00;2.70;;;;;;;19.72;100.00;99438.53;5155742;55;1139118;-66
2023/07/25 09:49:22;;;;;;;2.55;2.40;;;;;;;19.60;100.00;99446.88;5126203;55;1138827;-66
2023/07/25 09:54:28;;;;;;;2.83;2.40;;;;;;;19.59;100.00;99438.52;5112576;55;1138983;-65
2023/07/25 09:59:37;;;;;;;3.40;2.60;;;;;;;19.69;100.00;99423.39;5149021;55;1138936;-64
2023/07/25 10:04:43;;;;;;;2.55;2.35;;;;;;;19.57;100.00;99421.80;5119125;55;1139050;-64
2023/07/25 10:09:49;;;;;;;5.17;2.37;;;;;;;19.44;100.00;99421.73;5094215;55;1139228;-66
2023/07/25 10:14:56;;;;;;;4.17;2.30;;;;;;;19.53;100.00;99415.20;5134073;55;1138870;-66
2023/07/25 10:20:05;;;;;;;4.90;2.37;;;;;;;19.66;100.00;99411.20;5131450;55;1138822;-66
2023/07/25 10:25:14;;;;;;;2.25;2.02;;;;;;;19.73;100.00;99417.38;5132234;55;1138752;-65
2023/07/25 10:30:29;;;;;;;4.83;1.75;;;;;;;19.78;100.00;99405.53;5122273;55;1138875;-65
2023/07/25 10:35:56;;;;;;;2.90;2.70;;;;;;;19.76;100.00;99406.77;5176477;55;1138906;-66
2023/07/25 10:41:11;;;;;;;2.98;2.12;;;;;;;19.82;100.00;99413.48;5061880;55;1138899;-66
2023/07/25 10:46:19;;;;;;;6.30;2.00;;;;;;;19.98;100.00;99417.11;5018865;56;1138814;-65
2023/07/25 10:51:28;;;;;;;1.70;1.60;;;;;;;20.03;100.00;99419.98;5046007;56;1138901;-65
2023/07/25 10:56:33;;;;;;;2.85;2.00;;;;;;;20.23;100.00;99411.92;5060416;56;1139256;-65
2023/07/25 11:01:43;;;;;;;1.35;1.25;;;;;;;20.23;100.00;99418.64;5014169;56;1139255;-66
2023/07/25 11:06:51;;;;;;;2.06;1.90;;;;;;;20.24;100.00;99426.17;5132557;55;1139127;-65
2023/07/25 11:11:57;;;;;;;1.92;1.80;;;;;;;20.33;100.00;99428.42;5136935;55;1138930;-66
2023/07/25 11:17:03;;;;;;;3.80;1.70;;;;;;;20.40;100.00;99428.98;5075160;55;1138874;-65
2023/07/25 11:22:13;;;;;;;6.62;1.77;;;;;;;20.46;100.00;99426.30;5080130;55;1138681;-64
2023/07/25 11:27:20;;;;;;;3.52;1.82;;;;;;;20.43;100.00;99434.77;5109652;55;1138943;-65
2023/07/25 11:32:29;;;;;;;1.50;1.40;;;;;;;20.40;100.00;99428.46;5124630;55;1139019;-67
2023/07/25 11:37:34;;;;;;;1.10;1.10;;;;;;;20.40;100.00;99443.75;4998959;57;1138884;-69
2023/07/25 11:42:49;;;;;;;4.00;1.30;;;;;;;20.49;100.00;99437.94;5127635;55;1139137;-69
2023/07/25 11:47:55;;;;;;;4.47;1.80;;;;;;;20.57;100.00;99442.28;5098035;55;1138726;-67
2023/07/25 11:53:02;;;;;;;5.80;1.62;;;;;;;20.60;100.00;99440.52;5023455;56;1138739;-65
2023/07/25 11:58:08;;;;;;;3.55;1.22;;;;;;;20.66;100.00;99429.74;5011763;56;1138749;-66
2023/07/25 12:03:25;;;;;;;3.75;2.02;;;;;;;20.63;100.00;99431.50;5017454;57;1138934;-66
2023/07/25 12:08:42;;;;;;;2.20;1.40;;;;;;;20.66;100.00;99424.37;5018371;56;1138803;-66
2023/07/25 12:13:50;;;;;;;1.80;1.70;;;;;;;20.68;100.00;99417.45;4991507;56;1139007;-64
2023/07/25 12:19:05;;;;;;;2.58;1.52;;;;;;;20.66;100.00;99410.11;5068017;56;1139042;-64
2023/07/25 12:24:15;;;;;;;1.70;1.70;;;;;;;20.61;100.00;99406.73;5044786;56;1138886;-65
2023/07/25 12:29:25;;;;;;;1.50;1.37;;;;;;;20.59;100.00;99418.72;5058446;56;1139469;-66
2023/07/25 12:34:30;;;;;;;1.40;1.40;;;;;;;20.66;100.00;99402.88;5068129;57;1138955;-64
2023/07/25 12:39:36;;;;;;;1.10;1.10;;;;;;;20.70;100.00;99392.53;5114568;57;1139080;-65
2023/07/25 12:44:42;;;;;;;1.82;1.40;;;;;;;20.90;100.00;99387.92;5000952;57;1139056;-67
2023/07/25 12:49:48;;;;;;;2.37;1.47;;;;;;;20.93;100.00;99391.50;4996884;57;1139234;-65
2023/07/25 12:54:54;;;;;;;1.80;1.70;;;;;;;20.90;100.00;99400.54;5135825;56;1138722;-66
2023/07/25 12:59:59;;;;;;;3.35;1.50;;;;;;;20.84;100.00;99396.83;4945805;58;1139261;-67
2023/07/25 13:05:06;;;;;;;1.62;1.40;;;;;;;20.77;100.00;99401.42;5025688;57;1139233;-66
2023/07/25 13:10:11;;;;;;;2.62;1.62;;;;;;;20.79;100.00;99400.66;5002971;57;1138649;-66
2023/07/25 13:15:17;;;;;;;2.40;2.08;;;;;;;20.85;100.00;99386.91;4992271;57;1138728;-66
2023/07/25 13:20:22;;;;;;;6.63;1.63;;;;;;;20.94;100.00;99393.67;5027426;57;1139172;-66
2023/07/25 13:25:28;;;;;;;3.30;1.72;;;;;;;20.90;100.00;99387.09;5046563;57;1139125;-66
2023/07/25 13:30:33;;;;;;;2.40;1.87;;;;;;;21.00;100.00;99385.59;4963837;57;1139368;-65
2023/07/25 13:35:39;;;;;;;1.95;1.85;;;;;;;21.07;100.00;99390.95;4994313;57;1138991;-65
2023/07/25 13:40:45;;;;;;;7.40;2.10;;;;;;;21.17;100.00;99390.48;4994249;57;1138864;-65
2023/07/25 13:45:50;;;;;;;2.72;1.60;;;;;;;21.31;100.00;99383.50;4954499;57;1139016;-65
2023/07/25 13:50:56;;;;;;;3.07;1.53;;;;;;;21.39;100.00;99379.71;4943098;57;1138984;-65
2023/07/25 13:56:01;;;;;;;3.60;1.53;;;;;;;21.39;100.00;99374.33;5041945;56;1138877;-65
2023/07/25 14:01:07;;;;;;;3.52;1.57;;;;;;;21.30;100.00;99376.47;4906865;57;1138884;-66
2023/07/25 14:06:13;;;;;;;1.55;1.45;;;;;;;21.26;100.00;99363.14;4937705;57;1139009;-66
2023/07/25 14:11:18;;;;;;;1.25;1.20;;;;;;;21.24;100.00;99363.88;4886061;58;1139106;-65
2023/07/25 14:16:24;;;;;;;1.55;1.47;;;;;;;21.18;100.00;99366.59;5035402;56;1138808;-67
2023/07/25 14:21:29;;;;;;;1.50;1.40;;;;;;;21.07;100.00;99357.34;4998085;57;1138859;-66
2023/07/25 14:26:35;;;;;;;1.92;1.82;;;;;;;21.08;100.00;99350.11;4972559;57;1138843;-66
2023/07/25 14:31:41;;;;;;;3.05;1.40;;;;;;;21.10;100.00;99359.58;5055015;57;1138778;-66
2023/07/25 14:36:46;;;;;;;1.70;1.60;;;;;;;21.16;100.00;99365.45;4962402;57;1139085;-66
2023/07/25 14:41:53;;;;;;;1.22;1.15;;;;;;;21.18;100.00;99366.06;5014667;56;1148561;-65
2023/07/25 14:46:59;;;;;;;2.25;1.55;;;;;;;21.23;100.00;99360.91;4948765;57;1139108;-66
2023/07/25 14:52:05;;;;;;;1.83;1.73;;;;;;;21.36;100.00;99360.83;4954103;57;1138948;-65
2023/07/25 14:57:12;;;;;;;2.30;1.50;;;;;;;21.43;100.00;99358.07;4958458;57;1138745;-65
2023/07/25 15:02:18;;;;;;;1.30;1.20;;;;;;;21.51;100.00;99360.52;4944267;57;1139035;-64
2023/07/25 15:07:23;;;;;;;2.70;1.50;;;;;;;21.46;100.00;99364.89;4953262;58;1138990;-66
2023/07/25 15:12:29;;;;;;;3.27;1.72;;;;;;;21.36;100.00;99366.20;4934121;58;1138732;-65
2023/07/25 15:17:35;;;;;;;2.08;1.35;;;;;;;21.29;100.00;99360.55;4998009;57;1138967;-65
2023/07/25 15:22:40;;;;;;;1.77;1.37;;;;;;;21.17;100.00;99363.08;4956170;58;1138674;-65
2023/07/25 15:27:47;;;;;;;4.42;1.35;;;;;;;21.08;100.00;99365.17;4913272;58;1138942;-67
2023/07/25 15:32:53;;;;;;;3.53;1.97;;;;;;;21.09;100.00;99360.62;4931169;57;1138772;-66
2023/07/25 15:37:59;;;;;;;3.55;1.80;;;;;;;21.22;100.00;99359.78;5025461;57;1139142;-66
2023/07/25 15:43:07;;;;;;;1.35;1.17;;;;;;;21.37;100.00;99354.41;4914951;58;1139099;-65
2023/07/25 15:48:12;;;;;;;2.83;1.80;;;;;;;21.52;100.00;99350.58;4972796;56;1139421;-65
2023/07/25 15:53:18;;;;;;;5.75;1.70;;;;;;;21.48;100.00;99346.15;4966303;56;1139010;-65
2023/07/25 15:58:24;;;;;;;4.22;1.70;;;;;;;21.45;100.00;99350.61;5006035;57;1138794;-65
2023/07/25 16:03:29;;;;;;;2.67;1.20;;;;;;;21.39;100.00;99344.23;4930450;56;1139043;-65
2023/07/25 16:08:35;;;;;;;4.03;2.20;;;;;;;21.45;100.00;99343.89;4906602;57;1138830;-65
2023/07/25 16:13:41;;;;;;;2.08;1.35;;;;;;;21.52;100.00;99337.13;4958436;57;1138695;-66
2023/07/25 16:18:46;;;;;;;2.30;1.62;;;;;;;21.43;100.00;99330.34;5005311;57;1138985;-65
2023/07/25 16:23:52;;;;;;;2.34;1.62;;;;;;;21.25;100.00;99330.56;4986260;56;1138809;-66
2023/07/25 16:28:58;;;;;;;2.20;1.67;;;;;;;21.18;100.00;99328.42;5005061;57;1138714;-66
2023/07/25 16:34:03;;;;;;;2.47;1.80;;;;;;;21.15;100.00;99327.50;4985830;56;1138665;-65
2023/07/25 16:39:09;;;;;;;4.58;2.10;;;;;;;21.13;100.00;99328.23;4960060;56;1138718;-65
2023/07/25 16:44:16;;;;;;;5.06;1.92;;;;;;;21.15;100.00;99320.78;4923393;58;1138906;-67
2023/07/25 16:49:21;;;;;;;3.35;1.47;;;;;;;21.30;100.00;99322.68;4927367;58;1138937;-66
2023/07/25 16:54:27;;;;;;;2.22;1.60;;;;;;;21.47;100.00;99331.05;4905919;57;1138733;-65
2023/07/25 16:59:33;;;;;;;1.95;1.40;;;;;;;21.60;100.00;99320.17;4906782;58;1138856;-65
2023/07/25 17:04:38;;;;;;;2.65;1.60;;;;;;;21.62;100.00;99321.30;5108017;56;1138718;-65
2023/07/25 17:09:44;;;;;;;2.90;1.17;;;;;;;21.72;100.00;99318.94;5101107;56;1138952;-65
2023/07/25 17:14:49;;;;;;;3.98;1.15;;;;;;;21.80;99.10;99321.36;5101854;56;1138697;-65
2023/07/25 17:19:55;;;;;;;2.42;1.52;;;;;;;21.80;100.00;99307.91;4931893;56;1137218;-65
2023/07/25 17:25:01;;;;;;;5.53;1.70;;;;;;;21.80;100.00;99317.33;4949404;58;1138879;-65
2023/07/25 17:30:08;;;;;;;2.87;1.57;;;;;;;21.74;99.20;99326.27;4932621;57;1139004;-64
2023/07/25 17:35:13;;;;;;;3.70;1.05;;;;;;;21.68;98.64;99323.13;4980608;57;1136520;-65
2023/07/25 17:40:19;;;;;;;1.02;0.88;;;;;;;21.58;98.73;99328.16;5021305;56;1136643;-65
2023/07/25 17:45:24;;;;;;;1.98;1.00;;;;;;;21.44;98.44;99322.06;5060560;57;1136971;-66
2023/07/25 17:50:30;;;;;;;1.65;1.55;;;;;;;21.34;98.60;99321.21;5053924;56;1136742;-66
2023/07/25 17:55:35;;;;;;;5.00;1.25;;;;;;;21.27;99.55;99329.83;4943324;56;1137172;-66
2023/07/25 18:00:42;;;;;;;4.40;1.30;;;;;;;21.17;96.70;99334.02;4955983;57;1136877;-65
2023/07/25 18:05:48;;;;;;;2.42;1.30;;;;;;;21.08;97.13;99341.52;4999686;56;1136793;-66
2023/07/25 18:10:53;;;;;;;2.80;1.40;;;;;;;21.02;97.47;99347.23;4978818;57;1136543;-64
2023/07/25 18:16:00;;;;;;;3.40;1.22;;;;;;;20.95;97.82;99354.48;5004866;57;1136658;-66
2023/07/25 18:21:06;;;;;;;1.10;1.00;;;;;;;20.95;97.82;99354.48;4979238;57;1136844;-65
2023/07/25 18:26:11;;;;;;;2.30;1.27;;;;;;;20.88;98.23;99356.92;4977587;57;1136858;-65
2023/07/25 18:31:17;;;;;;;3.40;1.75;;;;;;;20.48;99.19;99362.94;4994390;57;1137199;-66
2023/07/25 18:36:22;;;;;;;2.80;1.67;;;;;;;20.48;99.19;99362.94;5013917;57;1136806;-65
2023/07/25 18:41:28;;;;;;;2.83;1.65;;;;;;;20.28;99.19;99362.97;5040334;57;1136823;-65
2023/07/25 18:46:34;;;;;;;1.80;1.40;;;;;;;20.21;99.68;99365.66;5042291;57;1136763;-65
2023/07/25 18:51:40;;;;;;;8.18;1.90;;;;;;;20.17;100.00;99370.30;5025069;57;1136749;-66
2023/07/25 18:56:45;;;;;;;5.55;2.20;;;;;;;20.09;100.00;99375.91;4926383;58;1138886;-64
2023/07/25 19:01:51;;;;;;;5.97;1.62;;;;;;;19.98;100.00;99385.41;5025058;58;1138830;-64
2023/07/25 19:06:56;;;;;;;3.25;1.72;;;;;;;19.84;100.00;99389.97;5126209;56;1138848;-66
2023/07/25 19:12:02;;;;;;;3.67;1.60;;;;;;;19.70;100.00;99399.04;5158304;56;1138673;-66
2023/07/25 19:17:08;;;;;;;7.58;1.67;;;;;;;19.56;100.00;99399.52;5121751;56;1138678;-64
2023/07/25 19:22:14;;;;;;;5.47;1.55;;;;;;;19.46;100.00;99403.08;5128429;56;1138805;-66
2023/07/25 19:27:19;;;;;;;3.42;1.50;;;;;;;19.39;100.00;99408.96;5100987;56;1138815;-64
2023/07/25 19:32:25;;;;;;;2.72;1.72;;;;;;;19.26;100.00;99418.28;5121614;56;1138695;-65
2023/07/25 19:37:30;;;;;;;4.40;1.65;;;;;;;19.24;100.00;99413.16;5143625;56;1138691;-64
2023/07/25 19:42:37;;;;;;;3.10;2.02;;;;;;;19.16;100.00;99424.55;5036004;56;1138475;-65
2023/07/25 19:47:42;;;;;;;6.65;1.95;;;;;;;19.19;100.00;99426.32;5022364;58;1138977;-65
2023/07/25 19:52:48;;;;;;;2.15;1.95;;;;;;;19.07;100.00;99423.91;4964065;58;1138807;-64
2023/07/25 19:57:54;;;;;;;11.83;2.30;;;;;;;18.88;100.00;99425.98;4903733;58;1138895;-65
2023/07/25 20:02:59;;;;;;;6.92;2.60;;;;;;;18.76;100.00;99439.13;4944767;57;1141440;-64
2023/07/25 20:08:05;;;;;;;4.20;2.42;;;;;;;18.70;100.00;99440.41;4997269;57;1139045;-67
2023/07/25 20:13:11;;;;;;;9.45;3.10;;;;;;;18.68;100.00;99434.42;4967781;57;1138748;-65
2023/07/25 20:18:17;;;;;;;5.08;3.22;;;;;;;18.76;100.00;99437.78;4964573;57;1138753;-66
2023/07/25 20:23:22;;;;;;;5.53;3.15;;;;;;;18.78;100.00;99435.73;5005937;57;1139043;-65
2023/07/25 20:28:28;;;;;;;7.30;2.85;;;;;;;18.71;100.00;99448.77;4983142;57;1138815;-64
2023/07/25 20:33:34;;;;;;;5.12;3.30;;;;;;;18.57;100.00;99456.69;4986652;57;1138947;-65
2023/07/25 20:38:41;;;;;;;4.17;3.05;;;;;;;18.63;100.00;99461.81;4989619;57;1139102;-63
2023/07/25 20:43:46;;;;;;;7.75;3.20;;;;;;;18.75;100.00;99463.42;4985637;57;1138865;-65
2023/07/25 20:48:52;;;;;;;9.30;5.25;;;;;;;18.75;100.00;99464.77;4927093;57;1139204;-64
2023/07/25 20:53:58;;;;;;;7.28;4.50;;;;;;;18.67;100.00;99472.43;4952701;56;1139228;-65
2023/07/25 20:59:03;;;;;;;7.55;3.08;;;;;;;18.63;100.00;99478.40;4970841;56;1138977;-65
2023/07/25 21:04:09;;;;;;;6.75;2.77;;;;;;;18.49;100.00;99485.45;4920867;57;1138715;-65
2023/07/25 21:09:14;;;;;;;5.62;2.77;;;;;;;18.36;100.00;99488.03;5005347;57;1138895;-64
2023/07/25 21:14:20;;;;;;;8.65;3.22;;;;;;;18.23;100.00;99492.78;4946258;57;1138951;-65
2023/07/25 21:19:25;;;;;;;9.00;3.30;;;;;;;18.10;100.00;99496.68;4979267;56;1138815;-65
2023/07/25 21:24:32;;;;;;;7.72;3.20;;;;;;;18.15;100.00;99495.61;4995480;56;1138851;-67
2023/07/25 21:29:38;;;;;;;10.20;4.40;;;;;;;18.30;100.00;99494.19;4957070;56;1138839;-66
2023/07/25 21:34:43;;;;;;;7.57;4.33;;;;;;;18.47;100.00;99492.88;4936707;57;1141213;-64
2023/07/25 21:39:49;;;;;;;11.55;5.78;;;;;;;18.64;100.00;99498.80;4955339;57;1138957;-65
2023/07/25 21:44:55;;;;;;;8.68;5.85;;;;;;;18.74;100.00;99500.10;4909858;57;1141080;-64
2023/07/25 21:50:01;;;;;;;5.17;3.02;;;;;;;18.69;100.00;99505.72;4906991;57;1138724;-65
2023/07/25 21:55:07;;;;;;;7.70;3.10;;;;;;;18.43;100.00;99520.55;4925806;58;1139192;-64
2023/07/25 22:00:13;;;;;;;6.65;2.83;;;;;;;18.19;100.00;99519.60;4917536;57;1138783;-66
2023/07/25 22:05:19;;;;;;;7.90;2.58;;;;;;;18.04;100.00;99516.17;4986068;57;1138685;-65
2023/07/25 22:10:25;;;;;;;9.00;3.00;;;;;;;17.95;100.00;99518.66;4986024;57;1138921;-66
2023/07/25 22:15:30;;;;;;;4.30;2.60;;;;;;;17.90;100.00;99519.22;4956424;56;1139102;-65
2023/07/25 22:20:36;;;;;;;2.72;2.52;;;;;;;17.86;100.00;99528.16;4986541;57;1138951;-63
2023/07/25 22:25:41;;;;;;;5.25;2.83;;;;;;;17.82;100.00;99522.04;4986764;56;1138770;-64
2023/07/25 22:30:47;;;;;;;9.05;3.20;;;;;;;17.76;100.00;99520.94;5006668;56;1138742;-64
2023/07/25 22:35:53;;;;;;;4.47;3.10;;;;;;;17.80;100.00;99520.88;4986704;57;1138750;-65
2023/07/25 22:40:58;;;;;;;5.67;3.55;;;;;;;17.92;100.00;99517.19;4933102;57;1138673;-65
2023/07/25 22:46:06;;;;;;;5.80;3.67;;;;;;;17.95;100.00;99520.83;4925995;58;1138721;-64
2023/07/25 22:51:11;;;;;;;6.60;3.15;;;;;;;17.96;100.00;99521.66;4906889;58;1138845;-66
2023/07/25 22:56:17;;;;;;;5.45;2.90;;;;;;;17.93;100.00;99524.20;4907385;57;1138772;-64
2023/07/25 23:01:22;;;;;;;7.48;2.03;;;;;;;17.81;100.00;99525.22;4907202;58;1138749;-64
2023/07/25 23:06:28;;;;;;;4.95;2.87;;;;;;;17.70;100.00;99528.40;4925900;58;1138854;-66
2023/07/25 23:11:34;;;;;;;12.20;3.22;;;;;;;17.66;100.00;99536.47;4907201;58;1138843;-65